sensor_id;sensor_type;location;lat;lon;timestamp;pressure;altitude;pressure_sealevel;temperature;humidity
80405;BME280;69733;48.744;9.176;2024-01-11T00:02:17;97701.16;;;-6.25;77.17
80405;BME280;69733;48.744;9.176;2024-01-11T00:04:43;97697.00;;;-6.27;76.84
80405;BME280;69733;48.744;9.176;2024-01-11T00:07:09;97693.59;;;-6.28;76.93
80405;BME280;69733;48.744;9.176;2024-01-11T00:09:41;97695.34;;;-6.28;77.08
80405;BME280;69733;48.744;9.176;2024-01-11T00:12:07;97692.84;;;-6.30;76.92
80405;BME280;69733;48.744;9.176;2024-01-11T00:14:32;97696.38;;;-6.31;77.17
80405;BME280;69733;48.744;9.176;2024-01-11T00:16:58;97705.78;;;-6.30;76.92
80405;BME280;69733;48.744;9.176;2024-01-11T00:19:23;97699.78;;;-6.30;76.80
80405;BME280;69733;48.744;9.176;2024-01-11T00:21:49;97702.38;;;-6.30;76.62
80405;BME280;69733;48.744;9.176;2024-01-11T00:24:14;97699.06;;;-6.32;76.88
80405;BME280;69733;48.744;9.176;2024-01-11T00:26:39;97702.50;;;-6.32;77.00
80405;BME280;69733;48.744;9.176;2024-01-11T00:29:06;97706.00;;;-6.33;77.09
80405;BME280;69733;48.744;9.176;2024-01-11T00:31:32;97713.88;;;-6.34;76.85
80405;BME280;69733;48.744;9.176;2024-01-11T00:33:57;97707.88;;;-6.35;76.97
80405;BME280;69733;48.744;9.176;2024-01-11T00:36:23;97716.56;;;-6.36;77.08
80405;BME280;69733;48.744;9.176;2024-01-11T00:38:48;97714.06;;;-6.37;76.59
80405;BME280;69733;48.744;9.176;2024-01-11T00:41:14;97709.84;;;-6.38;77.38
80405;BME280;69733;48.744;9.176;2024-01-11T00:43:39;97709.94;;;-6.40;76.99
80405;BME280;69733;48.744;9.176;2024-01-11T00:46:04;97708.16;;;-6.39;76.72
80405;BME280;69733;48.744;9.176;2024-01-11T00:48:30;97711.78;;;-6.42;77.27
80405;BME280;69733;48.744;9.176;2024-01-11T00:50:55;97710.84;;;-6.41;77.82
80405;BME280;69733;48.744;9.176;2024-01-11T00:53:20;97709.22;;;-6.42;76.88
80405;BME280;69733;48.744;9.176;2024-01-11T00:55:45;97712.72;;;-6.43;77.04
80405;BME280;69733;48.744;9.176;2024-01-11T00:58:11;97699.88;;;-6.44;76.88
80405;BME280;69733;48.744;9.176;2024-01-11T01:00:36;97697.28;;;-6.44;76.88
80405;BME280;69733;48.744;9.176;2024-01-11T01:03:01;97693.88;;;-6.45;76.98
80405;BME280;69733;48.744;9.176;2024-01-11T01:05:27;97695.66;;;-6.45;77.22
80405;BME280;69733;48.744;9.176;2024-01-11T01:07:52;97709.41;;;-6.45;76.94
80405;BME280;69733;48.744;9.176;2024-01-11T01:10:18;97714.69;;;-6.46;77.36
80405;BME280;69733;48.744;9.176;2024-01-11T01:12:43;97711.25;;;-6.47;77.13
80405;BME280;69733;48.744;9.176;2024-01-11T01:15:08;97719.03;;;-6.47;77.42
80405;BME280;69733;48.744;9.176;2024-01-11T01:17:34;97725.03;;;-6.46;77.59
80405;BME280;69733;48.744;9.176;2024-01-11T01:19:59;97717.28;;;-6.46;77.38
80405;BME280;69733;48.744;9.176;2024-01-11T01:22:24;97723.16;;;-6.44;77.35
80405;BME280;69733;48.744;9.176;2024-01-11T01:24:50;97721.53;;;-6.45;76.99
80405;BME280;69733;48.744;9.176;2024-01-11T01:27:16;97716.34;;;-6.45;77.65
80405;BME280;69733;48.744;9.176;2024-01-11T01:29:41;97705.88;;;-6.44;77.27
80405;BME280;69733;48.744;9.176;2024-01-11T01:32:07;97701.66;;;-6.45;77.52
80405;BME280;69733;48.744;9.176;2024-01-11T01:34:32;97715.41;;;-6.44;77.48
80405;BME280;69733;48.744;9.176;2024-01-11T01:36:57;97710.34;;;-6.46;77.71
80405;BME280;69733;48.744;9.176;2024-01-11T01:39:22;97717.28;;;-6.46;77.52
80405;BME280;69733;48.744;9.176;2024-01-11T01:41:48;97713.84;;;-6.47;77.59
80405;BME280;69733;48.744;9.176;2024-01-11T01:44:13;97719.03;;;-6.47;77.32
80405;BME280;69733;48.744;9.176;2024-01-11T01:46:39;97722.53;;;-6.48;77.53
80405;BME280;69733;48.744;9.176;2024-01-11T01:49:04;97727.81;;;-6.49;77.68
80405;BME280;69733;48.744;9.176;2024-01-11T01:51:31;97733.00;;;-6.49;77.48
80405;BME280;69733;48.744;9.176;2024-01-11T01:53:57;97733.00;;;-6.49;77.86
80405;BME280;69733;48.744;9.176;2024-01-11T01:56:23;97739.94;;;-6.50;77.30
80405;BME280;69733;48.744;9.176;2024-01-11T01:58:51;97743.44;;;-6.51;76.97
80405;BME280;69733;48.744;9.176;2024-01-11T02:01:19;97747.78;;;-6.51;77.69
80405;BME280;69733;48.744;9.176;2024-01-11T02:03:46;97745.94;;;-6.49;77.18
80405;BME280;69733;48.744;9.176;2024-01-11T02:06:13;97748.31;;;-6.46;77.60
80405;BME280;69733;48.744;9.176;2024-01-11T02:08:40;97741.91;;;-6.41;77.33
80405;BME280;69733;48.744;9.176;2024-01-11T02:11:07;97745.31;;;-6.40;77.37
80405;BME280;69733;48.744;9.176;2024-01-11T02:13:32;97745.13;;;-6.37;77.40
80405;BME280;69733;48.744;9.176;2024-01-11T02:15:58;97739.03;;;-6.36;77.21
80405;BME280;69733;48.744;9.176;2024-01-11T02:18:23;97750.13;;;-6.34;77.47
80405;BME280;69733;48.744;9.176;2024-01-11T02:20:48;97737.19;;;-6.34;77.38
80405;BME280;69733;48.744;9.176;2024-01-11T02:23:21;97732.94;;;-6.35;77.15
80405;BME280;69733;48.744;9.176;2024-01-11T02:25:49;97742.44;;;-6.36;77.32
80405;BME280;69733;48.744;9.176;2024-01-11T02:28:14;97742.44;;;-6.36;77.34
80405;BME280;69733;48.744;9.176;2024-01-11T02:30:40;97744.19;;;-6.36;77.73
80405;BME280;69733;48.744;9.176;2024-01-11T02:33:05;97742.53;;;-6.37;77.46
80405;BME280;69733;48.744;9.176;2024-01-11T02:35:31;97734.78;;;-6.37;77.45
80405;BME280;69733;48.744;9.176;2024-01-11T02:37:58;97741.72;;;-6.38;77.59
80405;BME280;69733;48.744;9.176;2024-01-11T02:40:25;97741.00;;;-6.40;78.17
80405;BME280;69733;48.744;9.176;2024-01-11T02:42:51;97737.69;;;-6.42;77.71
80405;BME280;69733;48.744;9.176;2024-01-11T02:45:16;97742.94;;;-6.43;77.69
80405;BME280;69733;48.744;9.176;2024-01-11T02:47:41;97749.03;;;-6.44;78.05
80405;BME280;69733;48.744;9.176;2024-01-11T02:50:07;97750.72;;;-6.43;77.75
80405;BME280;69733;48.744;9.176;2024-01-11T02:52:33;97742.84;;;-6.42;78.03
80405;BME280;69733;48.744;9.176;2024-01-11T02:54:59;97749.66;;;-6.41;78.17
80405;BME280;69733;48.744;9.176;2024-01-11T02:57:24;97738.50;;;-6.41;78.13
80405;BME280;69733;48.744;9.176;2024-01-11T02:59:51;97737.56;;;-6.40;77.69
80405;BME280;69733;48.744;9.176;2024-01-11T03:02:16;97740.28;;;-6.42;77.94
80405;BME280;69733;48.744;9.176;2024-01-11T03:04:41;97736.00;;;-6.43;78.25
80405;BME280;69733;48.744;9.176;2024-01-11T03:07:07;97729.09;;;-6.42;77.81
80405;BME280;69733;48.744;9.176;2024-01-11T03:09:32;97730.94;;;-6.44;78.12
80405;BME280;69733;48.744;9.176;2024-01-11T03:11:58;97729.28;;;-6.45;78.52
80405;BME280;69733;48.744;9.176;2024-01-11T03:14:23;97737.13;;;-6.47;78.23
80405;BME280;69733;48.744;9.176;2024-01-11T03:16:51;97726.91;;;-6.48;78.24
80405;BME280;69733;48.744;9.176;2024-01-11T03:19:17;97720.28;;;-6.52;78.65
80405;BME280;69733;48.744;9.176;2024-01-11T03:21:43;97731.63;;;-6.55;78.28
80405;BME280;69733;48.744;9.176;2024-01-11T03:24:08;97725.81;;;-6.59;78.26
80405;BME280;69733;48.744;9.176;2024-01-11T03:26:34;97715.69;;;-6.62;79.01
80405;BME280;69733;48.744;9.176;2024-01-11T03:28:59;97720.22;;;-6.65;78.94
80405;BME280;69733;48.744;9.176;2024-01-11T03:31:24;97722.09;;;-6.67;78.98
80405;BME280;69733;48.744;9.176;2024-01-11T03:33:50;97718.75;;;-6.69;79.25
80405;BME280;69733;48.744;9.176;2024-01-11T03:36:15;97719.78;;;-6.72;78.51
80405;BME280;69733;48.744;9.176;2024-01-11T03:38:40;97718.13;;;-6.73;78.87
80405;BME280;69733;48.744;9.176;2024-01-11T03:41:09;97712.25;;;-6.75;78.88
80405;BME280;69733;48.744;9.176;2024-01-11T03:43:36;97720.09;;;-6.76;78.91
80405;BME280;69733;48.744;9.176;2024-01-11T03:46:01;97709.09;;;-6.80;78.99
80405;BME280;69733;48.744;9.176;2024-01-11T03:48:26;97714.28;;;-6.80;79.11
80405;BME280;69733;48.744;9.176;2024-01-11T03:50:52;97715.31;;;-6.82;79.62
80405;BME280;69733;48.744;9.176;2024-01-11T03:53:17;97717.19;;;-6.84;79.45
80405;BME280;69733;48.744;9.176;2024-01-11T03:55:42;97718.09;;;-6.85;79.30
80405;BME280;69733;48.744;9.176;2024-01-11T03:58:08;97715.59;;;-6.87;79.06
80405;BME280;69733;48.744;9.176;2024-01-11T04:00:33;97715.72;;;-6.88;79.54
80405;BME280;69733;48.744;9.176;2024-01-11T04:02:59;97715.81;;;-6.90;79.17
80405;BME280;69733;48.744;9.176;2024-01-11T04:05:24;97706.41;;;-6.91;79.35
80405;BME280;69733;48.744;9.176;2024-01-11T04:07:50;97715.09;;;-6.92;79.67
80405;BME280;69733;48.744;9.176;2024-01-11T04:10:17;97710.00;;;-6.93;79.03
80405;BME280;69733;48.744;9.176;2024-01-11T04:12:42;97709.16;;;-6.94;78.70
80405;BME280;69733;48.744;9.176;2024-01-11T04:15:08;97712.69;;;-6.95;79.72
80405;BME280;69733;48.744;9.176;2024-01-11T04:17:34;97711.03;;;-6.96;78.89
80405;BME280;69733;48.744;9.176;2024-01-11T04:19:59;97710.19;;;-6.96;79.58
80405;BME280;69733;48.744;9.176;2024-01-11T04:22:24;97705.03;;;-6.96;79.19
80405;BME280;69733;48.744;9.176;2024-01-11T04:24:50;97708.53;;;-6.97;79.51
80405;BME280;69733;48.744;9.176;2024-01-11T04:27:15;97712.91;;;-6.98;80.00
80405;BME280;69733;48.744;9.176;2024-01-11T04:29:40;97713.69;;;-6.97;79.42
80405;BME280;69733;48.744;9.176;2024-01-11T04:32:05;97711.22;;;-6.99;79.73
80405;BME280;69733;48.744;9.176;2024-01-11T04:34:31;97712.16;;;-7.00;79.28
80405;BME280;69733;48.744;9.176;2024-01-11T04:36:56;97707.91;;;-7.01;79.38
80405;BME280;69733;48.744;9.176;2024-01-11T04:39:22;97718.16;;;-6.99;79.79
80405;BME280;69733;48.744;9.176;2024-01-11T04:41:47;97716.59;;;-7.02;79.33
80405;BME280;69733;48.744;9.176;2024-01-11T04:44:13;97710.47;;;-7.01;79.25
80405;BME280;69733;48.744;9.176;2024-01-11T04:46:38;97698.59;;;-7.03;78.96
80405;BME280;69733;48.744;9.176;2024-01-11T04:49:03;97710.59;;;-7.02;80.03
80405;BME280;69733;48.744;9.176;2024-01-11T04:51:29;97705.50;;;-7.04;79.10
80405;BME280;69733;48.744;9.176;2024-01-11T04:53:54;97701.28;;;-7.05;79.35
80405;BME280;69733;48.744;9.176;2024-01-11T04:56:19;97704.69;;;-7.05;79.07
80405;BME280;69733;48.744;9.176;2024-01-11T04:58:45;97700.34;;;-7.04;79.87
80405;BME280;69733;48.744;9.176;2024-01-11T05:01:14;97691.88;;;-7.06;79.40
80405;BME280;69733;48.744;9.176;2024-01-11T05:03:41;97703.13;;;-7.07;79.41
80405;BME280;69733;48.744;9.176;2024-01-11T05:06:06;97709.13;;;-7.07;79.32
80405;BME280;69733;48.744;9.176;2024-01-11T05:08:31;97703.13;;;-7.07;79.61
80405;BME280;69733;48.744;9.176;2024-01-11T05:10:57;97710.03;;;-7.08;79.66
80405;BME280;69733;48.744;9.176;2024-01-11T05:13:22;97710.03;;;-7.08;79.85
80405;BME280;69733;48.744;9.176;2024-01-11T05:15:47;97725.69;;;-7.09;79.32
80405;BME280;69733;48.744;9.176;2024-01-11T05:18:13;97718.84;;;-7.10;79.23
80405;BME280;69733;48.744;9.176;2024-01-11T05:20:39;97714.59;;;-7.11;79.40
80405;BME280;69733;48.744;9.176;2024-01-11T05:23:05;97720.69;;;-7.12;79.48
80405;BME280;69733;48.744;9.176;2024-01-11T05:25:31;97730.09;;;-7.11;79.73
80405;BME280;69733;48.744;9.176;2024-01-11T05:28:00;97732.69;;;-7.11;80.04
80405;BME280;69733;48.744;9.176;2024-01-11T05:30:26;97726.59;;;-7.10;79.52
80405;BME280;69733;48.744;9.176;2024-01-11T05:32:51;97727.31;;;-7.08;79.29
80405;BME280;69733;48.744;9.176;2024-01-11T05:35:17;97736.66;;;-7.06;79.41
80405;BME280;69733;48.744;9.176;2024-01-11T05:37:42;97728.06;;;-7.06;79.75
80405;BME280;69733;48.744;9.176;2024-01-11T05:40:08;97742.66;;;-7.05;79.66
80405;BME280;69733;48.744;9.176;2024-01-11T05:42:33;97734.91;;;-7.05;79.20
80405;BME280;69733;48.744;9.176;2024-01-11T05:44:58;97736.66;;;-7.06;79.45
80405;BME280;69733;48.744;9.176;2024-01-11T05:47:24;97737.50;;;-7.05;79.33
80405;BME280;69733;48.744;9.176;2024-01-11T05:49:49;97745.25;;;-7.05;80.22
80405;BME280;69733;48.744;9.176;2024-01-11T05:52:18;97754.63;;;-7.04;79.77
80405;BME280;69733;48.744;9.176;2024-01-11T05:54:43;97746.88;;;-7.04;79.61
80405;BME280;69733;48.744;9.176;2024-01-11T05:57:09;97749.38;;;-7.02;79.27
80405;BME280;69733;48.744;9.176;2024-01-11T05:59:34;97762.31;;;-7.02;79.88
80405;BME280;69733;48.744;9.176;2024-01-11T06:01:59;97762.19;;;-7.01;80.06
80405;BME280;69733;48.744;9.176;2024-01-11T06:04:26;97761.28;;;-7.00;79.61
80405;BME280;69733;48.744;9.176;2024-01-11T06:06:52;97766.44;;;-7.00;79.67
80405;BME280;69733;48.744;9.176;2024-01-11T06:09:17;97767.28;;;-6.99;79.60
80405;BME280;69733;48.744;9.176;2024-01-11T06:11:43;97771.53;;;-6.98;78.90
80405;BME280;69733;48.744;9.176;2024-01-11T06:14:08;97770.72;;;-6.99;79.50
80405;BME280;69733;48.744;9.176;2024-01-11T06:16:34;97756.94;;;-6.99;79.98
80405;BME280;69733;48.744;9.176;2024-01-11T06:18:59;97769.03;;;-7.00;79.55
80405;BME280;69733;48.744;9.176;2024-01-11T06:21:24;97769.78;;;-6.98;79.42
80405;BME280;69733;48.744;9.176;2024-01-11T06:23:50;97774.00;;;-6.97;79.61
80405;BME280;69733;48.744;9.176;2024-01-11T06:26:15;97771.44;;;-6.97;79.84
80405;BME280;69733;48.744;9.176;2024-01-11T06:28:40;97767.09;;;-6.96;79.28
80405;BME280;69733;48.744;9.176;2024-01-11T06:31:06;97763.66;;;-6.97;79.61
80405;BME280;69733;48.744;9.176;2024-01-11T06:33:31;97759.44;;;-6.98;79.64
80405;BME280;69733;48.744;9.176;2024-01-11T06:35:58;97764.63;;;-6.98;80.10
80405;BME280;69733;48.744;9.176;2024-01-11T06:38:23;97764.63;;;-6.98;79.91
80405;BME280;69733;48.744;9.176;2024-01-11T06:40:49;97769.78;;;-6.98;80.06
80405;BME280;69733;48.744;9.176;2024-01-11T06:43:15;97762.13;;;-6.99;79.93
80405;BME280;69733;48.744;9.176;2024-01-11T06:45:44;97759.63;;;-7.01;79.89
80405;BME280;69733;48.744;9.176;2024-01-11T06:48:10;97768.31;;;-7.02;79.50
80405;BME280;69733;48.744;9.176;2024-01-11T06:50:35;97782.16;;;-7.03;79.81
80405;BME280;69733;48.744;9.176;2024-01-11T06:53:01;97772.84;;;-7.06;80.59
80405;BME280;69733;48.744;9.176;2024-01-11T06:55:27;97773.03;;;-7.09;80.26
80405;BME280;69733;48.744;9.176;2024-01-11T06:57:52;97775.72;;;-7.10;80.54
80405;BME280;69733;48.744;9.176;2024-01-11T07:00:18;97779.34;;;-7.13;79.76
80405;BME280;69733;48.744;9.176;2024-01-11T07:02:43;97790.66;;;-7.15;80.32
80405;BME280;69733;48.744;9.176;2024-01-11T07:05:08;97792.44;;;-7.16;80.26
80405;BME280;69733;48.744;9.176;2024-01-11T07:07:34;97792.53;;;-7.17;80.28
80405;BME280;69733;48.744;9.176;2024-01-11T07:09:59;97793.44;;;-7.18;80.15
80405;BME280;69733;48.744;9.176;2024-01-11T07:12:25;97801.13;;;-7.17;80.44
80405;BME280;69733;48.744;9.176;2024-01-11T07:14:53;97801.13;;;-7.17;80.29
80405;BME280;69733;48.744;9.176;2024-01-11T07:17:18;97817.47;;;-7.16;80.51
80405;BME280;69733;48.744;9.176;2024-01-11T07:19:43;97812.28;;;-7.16;80.38
80405;BME280;69733;48.744;9.176;2024-01-11T07:22:09;97811.28;;;-7.14;80.00
80405;BME280;69733;48.744;9.176;2024-01-11T07:24:34;97797.44;;;-7.13;80.18
80405;BME280;69733;48.744;9.176;2024-01-11T07:27:06;97798.06;;;-7.09;80.89
80405;BME280;69733;48.744;9.176;2024-01-11T07:29:31;97797.88;;;-7.06;80.74
80405;BME280;69733;48.744;9.176;2024-01-11T07:31:57;97803.03;;;-7.06;80.07
80405;BME280;69733;48.744;9.176;2024-01-11T07:34:22;97803.75;;;-7.04;79.79
80405;BME280;69733;48.744;9.176;2024-01-11T07:36:49;97792.41;;;-7.01;80.00
80405;BME280;69733;48.744;9.176;2024-01-11T07:39:14;97788.81;;;-6.99;80.00
80405;BME280;69733;48.744;9.176;2024-01-11T07:41:40;97805.03;;;-6.97;79.72
80405;BME280;69733;48.744;9.176;2024-01-11T07:44:06;97816.97;;;-6.94;79.37
80405;BME280;69733;48.744;9.176;2024-01-11T07:46:31;97820.00;;;-6.88;79.98
80405;BME280;69733;48.744;9.176;2024-01-11T07:48:56;97828.09;;;-6.80;79.60
80405;BME280;69733;48.744;9.176;2024-01-11T07:51:22;97828.25;;;-6.69;79.30
80405;BME280;69733;48.744;9.176;2024-01-11T07:53:47;97816.53;;;-6.47;79.20
80405;BME280;69733;48.744;9.176;2024-01-11T07:56:12;97824.50;;;-6.24;78.45
80405;BME280;69733;48.744;9.176;2024-01-11T07:58:40;97827.66;;;-6.06;78.37
80405;BME280;69733;48.744;9.176;2024-01-11T08:01:06;97838.75;;;-5.79;77.26
80405;BME280;69733;48.744;9.176;2024-01-11T08:03:32;97843.19;;;-5.56;77.40
80405;BME280;69733;48.744;9.176;2024-01-11T08:06:00;97837.53;;;-5.35;76.89
80405;BME280;69733;48.744;9.176;2024-01-11T08:08:25;97855.75;;;-5.12;76.77
80405;BME280;69733;48.744;9.176;2024-01-11T08:10:51;97859.31;;;-4.76;75.99
80405;BME280;69733;48.744;9.176;2024-01-11T08:13:17;97861.94;;;-4.53;75.86
80405;BME280;69733;48.744;9.176;2024-01-11T08:15:43;97858.88;;;-4.34;75.00
80405;BME280;69733;48.744;9.176;2024-01-11T08:18:08;97857.31;;;-4.13;75.31
80405;BME280;69733;48.744;9.176;2024-01-11T08:20:34;97861.66;;;-3.89;74.57
80405;BME280;69733;48.744;9.176;2024-01-11T08:22:59;97859.03;;;-3.66;74.84
80405;BME280;69733;48.744;9.176;2024-01-11T08:25:25;97866.88;;;-3.43;74.56
80405;BME280;69733;48.744;9.176;2024-01-11T08:27:50;97862.28;;;-3.29;74.59
80405;BME280;69733;48.744;9.176;2024-01-11T08:30:15;97871.53;;;-3.14;74.09
80405;BME280;69733;48.744;9.176;2024-01-11T08:32:41;97880.53;;;-3.07;74.36
80405;BME280;69733;48.744;9.176;2024-01-11T08:35:09;97886.69;;;-2.96;74.52
80405;BME280;69733;48.744;9.176;2024-01-11T08:37:35;97870.13;;;-2.84;74.31
80405;BME280;69733;48.744;9.176;2024-01-11T08:40:01;97871.66;;;-2.60;74.44
80405;BME280;69733;48.744;9.176;2024-01-11T08:42:26;97863.91;;;-2.39;73.81
80405;BME280;69733;48.744;9.176;2024-01-11T08:44:52;97862.56;;;-2.22;73.81
80405;BME280;69733;48.744;9.176;2024-01-11T08:47:17;97867.34;;;-1.95;73.67
80405;BME280;69733;48.744;9.176;2024-01-11T08:49:43;97872.31;;;-1.92;73.36
80405;BME280;69733;48.744;9.176;2024-01-11T08:52:08;97875.56;;;-1.79;73.59
80405;BME280;69733;48.744;9.176;2024-01-11T08:54:33;97872.16;;;-1.91;74.38
80405;BME280;69733;48.744;9.176;2024-01-11T08:56:59;97875.69;;;-2.13;75.66
80405;BME280;69733;48.744;9.176;2024-01-11T08:59:25;97871.63;;;-2.48;76.77
80405;BME280;69733;48.744;9.176;2024-01-11T09:01:51;97870.22;;;-2.64;77.54
80405;BME280;69733;48.744;9.176;2024-01-11T09:04:17;97860.41;;;-2.71;77.51
80405;BME280;69733;48.744;9.176;2024-01-11T09:06:43;97872.25;;;-2.78;78.11
80405;BME280;69733;48.744;9.176;2024-01-11T09:09:08;97870.38;;;-2.87;78.30
80405;BME280;69733;48.744;9.176;2024-01-11T09:11:35;97867.53;;;-2.95;78.80
80405;BME280;69733;48.744;9.176;2024-01-11T09:14:01;97865.84;;;-2.96;78.52
80405;BME280;69733;48.744;9.176;2024-01-11T09:16:28;97882.06;;;-3.04;79.09
80405;BME280;69733;48.744;9.176;2024-01-11T09:18:53;97883.97;;;-3.06;79.17
80405;BME280;69733;48.744;9.176;2024-01-11T09:21:19;97885.63;;;-3.05;79.54
80405;BME280;69733;48.744;9.176;2024-01-11T09:23:44;97879.69;;;-3.07;79.38
80405;BME280;69733;48.744;9.176;2024-01-11T09:26:09;97876.25;;;-3.08;79.41
80405;BME280;69733;48.744;9.176;2024-01-11T09:28:35;97860.41;;;-3.05;79.67
80405;BME280;69733;48.744;9.176;2024-01-11T09:31:00;97857.34;;;-3.10;79.42
80405;BME280;69733;48.744;9.176;2024-01-11T09:33:27;97874.72;;;-3.10;79.99
80405;BME280;69733;48.744;9.176;2024-01-11T09:35:54;97886.81;;;-3.09;79.69
80405;BME280;69733;48.744;9.176;2024-01-11T09:38:19;97890.84;;;-3.05;79.68
80405;BME280;69733;48.744;9.176;2024-01-11T09:40:49;97883.03;;;-3.05;79.44
80405;BME280;69733;48.744;9.176;2024-01-11T09:43:20;97885.25;;;-3.01;79.70
80405;BME280;69733;48.744;9.176;2024-01-11T09:45:48;97877.59;;;-3.02;79.88
80405;BME280;69733;48.744;9.176;2024-01-11T09:48:15;97901.09;;;-3.15;80.40
80405;BME280;69733;48.744;9.176;2024-01-11T09:50:40;97910.66;;;-3.15;80.16
80405;BME280;69733;48.744;9.176;2024-01-11T09:53:07;97901.22;;;-3.16;80.31
80405;BME280;69733;48.744;9.176;2024-01-11T09:55:32;97912.81;;;-3.20;80.63
80405;BME280;69733;48.744;9.176;2024-01-11T09:57:59;97904.28;;;-3.22;80.60
80405;BME280;69733;48.744;9.176;2024-01-11T10:00:24;97904.16;;;-3.21;80.90
80405;BME280;69733;48.744;9.176;2024-01-11T10:02:51;97899.66;;;-3.19;80.10
80405;BME280;69733;48.744;9.176;2024-01-11T10:05:17;97899.66;;;-3.19;80.59
80405;BME280;69733;48.744;9.176;2024-01-11T10:07:43;97895.88;;;-3.26;80.85
80405;BME280;69733;48.744;9.176;2024-01-11T10:10:11;97891.63;;;-3.27;80.48
80405;BME280;69733;48.744;9.176;2024-01-11T10:12:37;97891.25;;;-3.22;80.40
80405;BME280;69733;48.744;9.176;2024-01-11T10:15:06;97889.38;;;-3.20;80.70
80405;BME280;69733;48.744;9.176;2024-01-11T10:17:43;97889.97;;;-3.17;80.34
80405;BME280;69733;48.744;9.176;2024-01-11T10:20:15;97866.56;;;-3.17;80.79
80405;BME280;69733;48.744;9.176;2024-01-11T10:22:42;97866.69;;;-3.07;80.61
80405;BME280;69733;48.744;9.176;2024-01-11T10:25:14;97861.97;;;-3.02;80.32
80405;BME280;69733;48.744;9.176;2024-01-11T10:27:41;97863.38;;;-3.09;80.26
80405;BME280;69733;48.744;9.176;2024-01-11T10:30:07;97854.84;;;-3.11;80.49
80405;BME280;69733;48.744;9.176;2024-01-11T10:32:33;97854.84;;;-3.11;80.72
80405;BME280;69733;48.744;9.176;2024-01-11T10:35:00;97848.94;;;-3.13;80.77
80405;BME280;69733;48.744;9.176;2024-01-11T10:37:27;97852.13;;;-3.10;80.65
80405;BME280;69733;48.744;9.176;2024-01-11T10:39:55;97845.84;;;-3.07;80.85
80405;BME280;69733;48.744;9.176;2024-01-11T10:42:24;97855.94;;;-3.03;80.39
80405;BME280;69733;48.744;9.176;2024-01-11T10:44:54;97852.50;;;-3.03;80.41
80405;BME280;69733;48.744;9.176;2024-01-11T10:47:21;97851.19;;;-2.97;80.67
80405;BME280;69733;48.744;9.176;2024-01-11T10:49:50;97856.03;;;-2.93;80.70
80405;BME280;69733;48.744;9.176;2024-01-11T10:52:21;97853.91;;;-2.88;80.37
80405;BME280;69733;48.744;9.176;2024-01-11T10:54:48;97860.66;;;-2.85;80.60
80405;BME280;69733;48.744;9.176;2024-01-11T10:57:15;97866.34;;;-2.80;79.92
80405;BME280;69733;48.744;9.176;2024-01-11T10:59:41;97860.88;;;-2.77;80.17
80405;BME280;69733;48.744;9.176;2024-01-11T11:02:09;97862.66;;;-2.78;80.47
80405;BME280;69733;48.744;9.176;2024-01-11T11:04:38;97862.75;;;-2.68;79.79
80405;BME280;69733;48.744;9.176;2024-01-11T11:07:05;97863.34;;;-2.65;79.89
80405;BME280;69733;48.744;9.176;2024-01-11T11:09:34;97864.78;;;-2.72;80.28
80405;BME280;69733;48.744;9.176;2024-01-11T11:12:00;97856.97;;;-2.72;80.11
80405;BME280;69733;48.744;9.176;2024-01-11T11:14:25;97864.34;;;-2.77;80.64
80405;BME280;69733;48.744;9.176;2024-01-11T11:16:52;97864.78;;;-2.72;80.65
80405;BME280;69733;48.744;9.176;2024-01-11T11:19:20;97875.34;;;-2.73;80.41
80405;BME280;69733;48.744;9.176;2024-01-11T11:21:47;97856.13;;;-2.72;80.80
80405;BME280;69733;48.744;9.176;2024-01-11T11:24:13;97868.47;;;-2.74;80.74
80405;BME280;69733;48.744;9.176;2024-01-11T11:26:39;97866.44;;;-2.60;80.49
80405;BME280;69733;48.744;9.176;2024-01-11T11:29:05;97860.50;;;-2.62;80.14
80405;BME280;69733;48.744;9.176;2024-01-11T11:31:45;97846.78;;;-2.64;80.34
80405;BME280;69733;48.744;9.176;2024-01-11T11:34:19;97845.25;;;-2.66;80.54
80405;BME280;69733;48.744;9.176;2024-01-11T11:36:46;97849.16;;;-2.61;80.77
80405;BME280;69733;48.744;9.176;2024-01-11T11:39:11;97856.13;;;-2.61;80.73
80405;BME280;69733;48.744;9.176;2024-01-11T11:41:39;97859.31;;;-2.58;80.77
80405;BME280;69733;48.744;9.176;2024-01-11T11:44:05;97860.97;;;-2.57;80.64
80405;BME280;69733;48.744;9.176;2024-01-11T11:46:31;97851.72;;;-2.49;80.67
80405;BME280;69733;48.744;9.176;2024-01-11T11:48:58;97845.69;;;-2.50;80.38
80405;BME280;69733;48.744;9.176;2024-01-11T11:51:24;97846.28;;;-2.46;80.25
80405;BME280;69733;48.744;9.176;2024-01-11T11:53:51;97846.53;;;-2.49;80.28
80405;BME280;69733;48.744;9.176;2024-01-11T11:56:21;97844.28;;;-2.54;80.45
80405;BME280;69733;48.744;9.176;2024-01-11T11:58:47;97839.31;;;-2.57;80.57
80405;BME280;69733;48.744;9.176;2024-01-11T12:01:15;97835.63;;;-2.55;80.90
80405;BME280;69733;48.744;9.176;2024-01-11T12:03:43;97838.13;;;-2.53;80.85
80405;BME280;69733;48.744;9.176;2024-01-11T12:06:15;97837.53;;;-2.45;80.45
80405;BME280;69733;48.744;9.176;2024-01-11T12:08:42;97831.25;;;-2.54;80.54
80405;BME280;69733;48.744;9.176;2024-01-11T12:11:08;97814.94;;;-2.56;80.99
80405;BME280;69733;48.744;9.176;2024-01-11T12:13:34;97808.06;;;-2.57;81.05
80405;BME280;69733;48.744;9.176;2024-01-11T12:16:00;97802.75;;;-2.56;81.07
80405;BME280;69733;48.744;9.176;2024-01-11T12:18:25;97805.09;;;-2.53;80.81
80405;BME280;69733;48.744;9.176;2024-01-11T12:20:51;97813.59;;;-2.51;80.86
80405;BME280;69733;48.744;9.176;2024-01-11T12:23:18;97809.22;;;-2.50;80.57
80405;BME280;69733;48.744;9.176;2024-01-11T12:25:43;97804.84;;;-2.49;80.93
80405;BME280;69733;48.744;9.176;2024-01-11T12:28:09;97797.72;;;-2.47;80.56
80405;BME280;69733;48.744;9.176;2024-01-11T12:30:35;97803.28;;;-2.41;80.20
80405;BME280;69733;48.744;9.176;2024-01-11T12:33:00;97805.31;;;-2.44;80.90
80405;BME280;69733;48.744;9.176;2024-01-11T12:35:27;97804.34;;;-2.43;80.72
80405;BME280;69733;48.744;9.176;2024-01-11T12:37:58;97804.94;;;-2.40;80.90
80405;BME280;69733;48.744;9.176;2024-01-11T12:40:25;97809.56;;;-2.43;80.83
80405;BME280;69733;48.744;9.176;2024-01-11T12:42:52;97800.69;;;-2.41;80.83
80405;BME280;69733;48.744;9.176;2024-01-11T12:45:18;97804.94;;;-2.40;80.52
80405;BME280;69733;48.744;9.176;2024-01-11T12:47:44;97793.56;;;-2.39;80.91
80405;BME280;69733;48.744;9.176;2024-01-11T12:50:09;97798.53;;;-2.36;80.68
80405;BME280;69733;48.744;9.176;2024-01-11T12:52:37;97792.22;;;-2.33;80.54
80405;BME280;69733;48.744;9.176;2024-01-11T12:55:03;97792.94;;;-2.31;80.78